sensor_id;sensor_type;location;lat;lon;timestamp;P1;durP1;ratioP1;P2;durP2;ratioP2
10645;SDS011;5371;49.782;9.932;2023-07-29T08:25:07;1.95;;;0.90;;
10645;SDS011;5371;49.782;9.932;2023-07-29T08:31:35;1.10;;;0.88;;
10645;SDS011;5371;49.782;9.932;2023-07-29T08:34:51;1.45;;;1.10;;
10645;SDS011;5371;49.782;9.932;2023-07-29T08:37:18;2.50;;;1.20;;
10645;SDS011;5371;49.782;9.932;2023-07-29T08:39:45;1.60;;;1.00;;
10645;SDS011;5371;49.782;9.932;2023-07-29T08:42:14;1.10;;;1.00;;
10645;SDS011;5371;49.782;9.932;2023-07-29T08:44:45;2.28;;;1.23;;
10645;SDS011;5371;49.782;9.932;2023-07-29T08:47:12;2.90;;;1.90;;
10645;SDS011;5371;49.782;9.932;2023-07-29T08:53:23;1.75;;;1.40;;
10645;SDS011;5371;49.782;9.932;2023-07-29T08:55:50;1.67;;;1.30;;
10645;SDS011;5371;49.782;9.932;2023-07-29T08:58:24;1.25;;;1.13;;
10645;SDS011;5371;49.782;9.932;2023-07-29T09:00:53;1.42;;;1.10;;
10645;SDS011;5371;49.782;9.932;2023-07-29T09:03:20;3.00;;;1.52;;
10645;SDS011;5371;49.782;9.932;2023-07-29T09:05:48;1.73;;;1.50;;
10645;SDS011;5371;49.782;9.932;2023-07-29T09:08:15;2.00;;;1.40;;
10645;SDS011;5371;49.782;9.932;2023-07-29T09:10:43;1.30;;;1.20;;
10645;SDS011;5371;49.782;9.932;2023-07-29T09:13:11;2.33;;;1.40;;
10645;SDS011;5371;49.782;9.932;2023-07-29T09:15:41;2.90;;;1.20;;
10645;SDS011;5371;49.782;9.932;2023-07-29T09:18:09;1.58;;;1.15;;
10645;SDS011;5371;49.782;9.932;2023-07-29T09:20:37;1.60;;;1.10;;
10645;SDS011;5371;49.782;9.932;2023-07-29T09:23:06;1.38;;;1.27;;
10645;SDS011;5371;49.782;9.932;2023-07-29T09:25:33;1.35;;;1.13;;
10645;SDS011;5371;49.782;9.932;2023-07-29T09:28:01;1.17;;;0.90;;
10645;SDS011;5371;49.782;9.932;2023-07-29T09:30:29;4.32;;;1.92;;
10645;SDS011;5371;49.782;9.932;2023-07-29T09:32:59;1.15;;;1.05;;
10645;SDS011;5371;49.782;9.932;2023-07-29T09:35:30;2.20;;;1.38;;
10645;SDS011;5371;49.782;9.932;2023-07-29T09:38:02;1.27;;;1.08;;
10645;SDS011;5371;49.782;9.932;2023-07-29T09:40:36;1.23;;;1.10;;
10645;SDS011;5371;49.782;9.932;2023-07-29T09:43:03;2.17;;;1.20;;
10645;SDS011;5371;49.782;9.932;2023-07-29T09:45:32;2.25;;;1.08;;
10645;SDS011;5371;49.782;9.932;2023-07-29T09:48:02;4.22;;;1.00;;
10645;SDS011;5371;49.782;9.932;2023-07-29T09:50:34;1.83;;;1.15;;
10645;SDS011;5371;49.782;9.932;2023-07-29T09:53:02;1.95;;;1.00;;
10645;SDS011;5371;49.782;9.932;2023-07-29T09:55:32;2.08;;;1.05;;
10645;SDS011;5371;49.782;9.932;2023-07-29T09:58:00;1.65;;;0.98;;
10645;SDS011;5371;49.782;9.932;2023-07-29T10:00:39;1.10;;;0.98;;
10645;SDS011;5371;49.782;9.932;2023-07-29T10:03:14;0.98;;;0.88;;
10645;SDS011;5371;49.782;9.932;2023-07-29T10:05:41;4.60;;;1.30;;
10645;SDS011;5371;49.782;9.932;2023-07-29T10:08:08;1.15;;;0.95;;
10645;SDS011;5371;49.782;9.932;2023-07-29T10:10:36;1.27;;;1.08;;
10645;SDS011;5371;49.782;9.932;2023-07-29T10:13:03;2.95;;;1.30;;
10645;SDS011;5371;49.782;9.932;2023-07-29T10:15:33;1.20;;;1.10;;
10645;SDS011;5371;49.782;9.932;2023-07-29T10:18:01;1.33;;;1.23;;
10645;SDS011;5371;49.782;9.932;2023-07-29T10:20:31;2.88;;;1.35;;
10645;SDS011;5371;49.782;9.932;2023-07-29T10:23:00;1.30;;;1.20;;
10645;SDS011;5371;49.782;9.932;2023-07-29T10:25:32;2.38;;;1.20;;
10645;SDS011;5371;49.782;9.932;2023-07-29T10:28:05;2.47;;;1.13;;
10645;SDS011;5371;49.782;9.932;2023-07-29T10:30:33;1.40;;;1.30;;
10645;SDS011;5371;49.782;9.932;2023-07-29T10:33:01;1.70;;;1.40;;
10645;SDS011;5371;49.782;9.932;2023-07-29T10:35:31;3.50;;;1.52;;
10645;SDS011;5371;49.782;9.932;2023-07-29T10:37:59;1.83;;;1.63;;
10645;SDS011;5371;49.782;9.932;2023-07-29T10:40:26;2.75;;;1.80;;
10645;SDS011;5371;49.782;9.932;2023-07-29T10:43:10;2.50;;;1.60;;
10645;SDS011;5371;49.782;9.932;2023-07-29T10:45:41;2.83;;;1.80;;
10645;SDS011;5371;49.782;9.932;2023-07-29T10:48:10;2.00;;;1.80;;
10645;SDS011;5371;49.782;9.932;2023-07-29T10:50:39;3.15;;;1.88;;
10645;SDS011;5371;49.782;9.932;2023-07-29T10:53:08;2.58;;;1.67;;
10645;SDS011;5371;49.782;9.932;2023-07-29T10:55:39;2.50;;;1.73;;
10645;SDS011;5371;49.782;9.932;2023-07-29T10:58:10;2.47;;;1.80;;
10645;SDS011;5371;49.782;9.932;2023-07-29T11:00:41;2.15;;;1.95;;
10645;SDS011;5371;49.782;9.932;2023-07-29T11:03:11;2.33;;;2.05;;
10645;SDS011;5371;49.782;9.932;2023-07-29T11:05:45;2.70;;;2.08;;
10645;SDS011;5371;49.782;9.932;2023-07-29T11:08:16;2.00;;;1.83;;
10645;SDS011;5371;49.782;9.932;2023-07-29T11:10:57;1.77;;;1.65;;
10645;SDS011;5371;49.782;9.932;2023-07-29T11:13:26;1.98;;;1.70;;
10645;SDS011;5371;49.782;9.932;2023-07-29T11:15:54;1.85;;;1.65;;
10645;SDS011;5371;49.782;9.932;2023-07-29T11:18:25;1.90;;;1.70;;
10645;SDS011;5371;49.782;9.932;2023-07-29T11:20:55;1.73;;;1.55;;
10645;SDS011;5371;49.782;9.932;2023-07-29T11:23:27;2.10;;;1.90;;
10645;SDS011;5371;49.782;9.932;2023-07-29T11:25:56;2.42;;;1.90;;
10645;SDS011;5371;49.782;9.932;2023-07-29T11:28:27;2.08;;;1.80;;
10645;SDS011;5371;49.782;9.932;2023-07-29T11:30:54;2.17;;;1.73;;
10645;SDS011;5371;49.782;9.932;2023-07-29T11:33:23;1.92;;;1.77;;
10645;SDS011;5371;49.782;9.932;2023-07-29T11:35:51;1.80;;;1.70;;
10645;SDS011;5371;49.782;9.932;2023-07-29T11:38:20;4.10;;;2.08;;
10645;SDS011;5371;49.782;9.932;2023-07-29T11:40:58;3.53;;;1.73;;
10645;SDS011;5371;49.782;9.932;2023-07-29T11:43:28;1.90;;;1.80;;
10645;SDS011;5371;49.782;9.932;2023-07-29T11:45:55;1.85;;;1.70;;
10645;SDS011;5371;49.782;9.932;2023-07-29T11:48:30;2.15;;;1.95;;
10645;SDS011;5371;49.782;9.932;2023-07-29T11:50:58;2.30;;;1.92;;
10645;SDS011;5371;49.782;9.932;2023-07-29T11:53:27;1.90;;;1.80;;
10645;SDS011;5371;49.782;9.932;2023-07-29T11:55:55;2.25;;;1.90;;
10645;SDS011;5371;49.782;9.932;2023-07-29T11:58:23;3.60;;;1.90;;
10645;SDS011;5371;49.782;9.932;2023-07-29T12:00:51;2.00;;;1.80;;
10645;SDS011;5371;49.782;9.932;2023-07-29T12:03:22;4.10;;;2.15;;
10645;SDS011;5371;49.782;9.932;2023-07-29T12:05:51;2.03;;;1.83;;
10645;SDS011;5371;49.782;9.932;2023-07-29T12:08:22;2.97;;;2.00;;
10645;SDS011;5371;49.782;9.932;2023-07-29T12:10:50;2.20;;;2.00;;
10645;SDS011;5371;49.782;9.932;2023-07-29T12:13:18;3.10;;;2.00;;
10645;SDS011;5371;49.782;9.932;2023-07-29T12:15:45;3.17;;;2.00;;
10645;SDS011;5371;49.782;9.932;2023-07-29T12:18:13;2.30;;;2.10;;
10645;SDS011;5371;49.782;9.932;2023-07-29T12:20:43;2.35;;;2.13;;
10645;SDS011;5371;49.782;9.932;2023-07-29T12:23:10;4.78;;;2.00;;
10645;SDS011;5371;49.782;9.932;2023-07-29T12:25:37;3.17;;;2.72;;
10645;SDS011;5371;49.782;9.932;2023-07-29T12:28:06;2.30;;;2.10;;
10645;SDS011;5371;49.782;9.932;2023-07-29T12:30:34;2.20;;;2.00;;
10645;SDS011;5371;49.782;9.932;2023-07-29T12:33:01;5.13;;;2.42;;
10645;SDS011;5371;49.782;9.932;2023-07-29T12:35:38;2.75;;;2.30;;
10645;SDS011;5371;49.782;9.932;2023-07-29T12:38:05;3.42;;;2.55;;
10645;SDS011;5371;49.782;9.932;2023-07-29T12:40:37;6.50;;;2.80;;
10645;SDS011;5371;49.782;9.932;2023-07-29T12:43:07;3.88;;;2.60;;
10645;SDS011;5371;49.782;9.932;2023-07-29T12:45:36;3.97;;;2.42;;
10645;SDS011;5371;49.782;9.932;2023-07-29T12:48:06;4.13;;;2.30;;
10645;SDS011;5371;49.782;9.932;2023-07-29T12:50:33;2.88;;;2.30;;
10645;SDS011;5371;49.782;9.932;2023-07-29T12:53:00;2.53;;;2.33;;
10645;SDS011;5371;49.782;9.932;2023-07-29T12:55:28;2.80;;;2.20;;
10645;SDS011;5371;49.782;9.932;2023-07-29T12:58:00;2.72;;;2.20;;
10645;SDS011;5371;49.782;9.932;2023-07-29T13:00:29;2.53;;;2.30;;
10645;SDS011;5371;49.782;9.932;2023-07-29T13:02:56;3.78;;;2.30;;
10645;SDS011;5371;49.782;9.932;2023-07-29T13:05:22;2.97;;;2.30;;
10645;SDS011;5371;49.782;9.932;2023-07-29T13:07:49;2.88;;;2.00;;
10645;SDS011;5371;49.782;9.932;2023-07-29T13:10:16;2.25;;;2.05;;
10645;SDS011;5371;49.782;9.932;2023-07-29T13:12:43;3.67;;;2.20;;
10645;SDS011;5371;49.782;9.932;2023-07-29T13:15:11;3.20;;;2.30;;
10645;SDS011;5371;49.782;9.932;2023-07-29T13:17:39;2.30;;;2.10;;
10645;SDS011;5371;49.782;9.932;2023-07-29T13:20:07;3.67;;;2.05;;
10645;SDS011;5371;49.782;9.932;2023-07-29T13:22:35;4.78;;;2.20;;
10645;SDS011;5371;49.782;9.932;2023-07-29T13:25:02;2.40;;;2.20;;
10645;SDS011;5371;49.782;9.932;2023-07-29T13:27:29;2.25;;;2.05;;
10645;SDS011;5371;49.782;9.932;2023-07-29T13:29:57;2.67;;;2.47;;
10645;SDS011;5371;49.782;9.932;2023-07-29T13:32:23;2.85;;;2.22;;
10645;SDS011;5371;49.782;9.932;2023-07-29T13:34:52;3.15;;;2.05;;
10645;SDS011;5371;49.782;9.932;2023-07-29T13:37:19;2.00;;;1.80;;
10645;SDS011;5371;49.782;9.932;2023-07-29T13:39:46;3.65;;;1.95;;
10645;SDS011;5371;49.782;9.932;2023-07-29T13:42:13;2.45;;;1.75;;
10645;SDS011;5371;49.782;9.932;2023-07-29T13:44:40;1.75;;;1.60;;
10645;SDS011;5371;49.782;9.932;2023-07-29T13:47:07;2.00;;;1.77;;
10645;SDS011;5371;49.782;9.932;2023-07-29T13:49:35;3.28;;;2.53;;
10645;SDS011;5371;49.782;9.932;2023-07-29T13:52:06;2.10;;;1.80;;
10645;SDS011;5371;49.782;9.932;2023-07-29T13:54:36;1.88;;;1.70;;
10645;SDS011;5371;49.782;9.932;2023-07-29T13:57:04;2.95;;;1.90;;
10645;SDS011;5371;49.782;9.932;2023-07-29T13:59:32;2.00;;;1.80;;
10645;SDS011;5371;49.782;9.932;2023-07-29T14:02:13;2.05;;;1.60;;
10645;SDS011;5371;49.782;9.932;2023-07-29T14:04:40;2.08;;;1.88;;
10645;SDS011;5371;49.782;9.932;2023-07-29T14:07:09;1.70;;;1.60;;
10645;SDS011;5371;49.782;9.932;2023-07-29T14:09:37;2.60;;;1.73;;
10645;SDS011;5371;49.782;9.932;2023-07-29T14:12:04;3.38;;;1.80;;
10645;SDS011;5371;49.782;9.932;2023-07-29T14:14:31;2.90;;;1.90;;
10645;SDS011;5371;49.782;9.932;2023-07-29T14:16:59;2.42;;;2.00;;
10645;SDS011;5371;49.782;9.932;2023-07-29T14:19:26;2.33;;;1.83;;
10645;SDS011;5371;49.782;9.932;2023-07-29T14:21:53;3.35;;;2.20;;
10645;SDS011;5371;49.782;9.932;2023-07-29T14:24:22;2.80;;;2.00;;
10645;SDS011;5371;49.782;9.932;2023-07-29T14:26:49;3.85;;;2.15;;
10645;SDS011;5371;49.782;9.932;2023-07-29T14:29:17;2.20;;;1.90;;
10645;SDS011;5371;49.782;9.932;2023-07-29T14:31:44;2.90;;;2.22;;
10645;SDS011;5371;49.782;9.932;2023-07-29T14:34:11;2.22;;;2.00;;
10645;SDS011;5371;49.782;9.932;2023-07-29T14:36:38;2.90;;;2.00;;
10645;SDS011;5371;49.782;9.932;2023-07-29T14:39:05;2.15;;;1.90;;
10645;SDS011;5371;49.782;9.932;2023-07-29T14:41:34;5.10;;;2.05;;
10645;SDS011;5371;49.782;9.932;2023-07-29T14:44:02;3.33;;;2.40;;
10645;SDS011;5371;49.782;9.932;2023-07-29T14:46:30;6.10;;;2.40;;
10645;SDS011;5371;49.782;9.932;2023-07-29T14:48:58;3.80;;;1.95;;
10645;SDS011;5371;49.782;9.932;2023-07-29T14:51:25;5.50;;;2.20;;
10645;SDS011;5371;49.782;9.932;2023-07-29T14:53:52;2.05;;;1.85;;
10645;SDS011;5371;49.782;9.932;2023-07-29T14:56:19;3.40;;;2.00;;
10645;SDS011;5371;49.782;9.932;2023-07-29T14:58:48;6.38;;;2.00;;
10645;SDS011;5371;49.782;9.932;2023-07-29T15:01:16;5.28;;;4.78;;
10645;SDS011;5371;49.782;9.932;2023-07-29T15:03:43;3.42;;;3.13;;
10645;SDS011;5371;49.782;9.932;2023-07-29T15:06:10;3.03;;;2.78;;
10645;SDS011;5371;49.782;9.932;2023-07-29T15:08:37;3.72;;;2.50;;
10645;SDS011;5371;49.782;9.932;2023-07-29T15:11:05;3.03;;;2.00;;
10645;SDS011;5371;49.782;9.932;2023-07-29T15:13:32;2.47;;;2.00;;
10645;SDS011;5371;49.782;9.932;2023-07-29T15:16:01;2.30;;;2.08;;
10645;SDS011;5371;49.782;9.932;2023-07-29T15:18:28;4.60;;;2.30;;
10645;SDS011;5371;49.782;9.932;2023-07-29T15:20:57;2.63;;;2.03;;
10645;SDS011;5371;49.782;9.932;2023-07-29T15:23:25;4.32;;;3.30;;
10645;SDS011;5371;49.782;9.932;2023-07-29T15:25:52;4.35;;;2.00;;
10645;SDS011;5371;49.782;9.932;2023-07-29T15:28:19;2.20;;;2.00;;
10645;SDS011;5371;49.782;9.932;2023-07-29T15:30:47;2.55;;;2.17;;
10645;SDS011;5371;49.782;9.932;2023-07-29T15:33:16;2.50;;;2.10;;
10645;SDS011;5371;49.782;9.932;2023-07-29T15:35:43;2.30;;;2.10;;
10645;SDS011;5371;49.782;9.932;2023-07-29T15:38:12;2.42;;;1.80;;
10645;SDS011;5371;49.782;9.932;2023-07-29T15:40:39;2.60;;;1.80;;
10645;SDS011;5371;49.782;9.932;2023-07-29T15:43:06;1.85;;;1.75;;
10645;SDS011;5371;49.782;9.932;2023-07-29T15:45:33;2.47;;;2.00;;
10645;SDS011;5371;49.782;9.932;2023-07-29T15:48:00;4.55;;;2.13;;
10645;SDS011;5371;49.782;9.932;2023-07-29T15:50:29;3.85;;;2.05;;
10645;SDS011;5371;49.782;9.932;2023-07-29T15:52:56;3.85;;;1.95;;
10645;SDS011;5371;49.782;9.932;2023-07-29T15:55:23;2.20;;;1.85;;
10645;SDS011;5371;49.782;9.932;2023-07-29T15:57:50;2.20;;;1.83;;
10645;SDS011;5371;49.782;9.932;2023-07-29T16:00:17;2.38;;;1.90;;
10645;SDS011;5371;49.782;9.932;2023-07-29T16:02:47;2.10;;;1.90;;
10645;SDS011;5371;49.782;9.932;2023-07-29T16:05:15;2.50;;;1.80;;
10645;SDS011;5371;49.782;9.932;2023-07-29T16:07:43;2.00;;;1.80;;
10645;SDS011;5371;49.782;9.932;2023-07-29T16:10:10;2.35;;;2.15;;
10645;SDS011;5371;49.782;9.932;2023-07-29T16:12:37;4.30;;;2.10;;
10645;SDS011;5371;49.782;9.932;2023-07-29T16:15:05;5.53;;;1.88;;
10645;SDS011;5371;49.782;9.932;2023-07-29T16:17:34;2.42;;;2.10;;
10645;SDS011;5371;49.782;9.932;2023-07-29T16:20:02;1.90;;;1.80;;
10645;SDS011;5371;49.782;9.932;2023-07-29T16:22:30;2.83;;;1.85;;
10645;SDS011;5371;49.782;9.932;2023-07-29T16:24:59;3.25;;;1.95;;
10645;SDS011;5371;49.782;9.932;2023-07-29T16:27:27;2.80;;;1.95;;
10645;SDS011;5371;49.782;9.932;2023-07-29T16:29:57;3.42;;;2.00;;
10645;SDS011;5371;49.782;9.932;2023-07-29T16:32:25;2.13;;;1.92;;
10645;SDS011;5371;49.782;9.932;2023-07-29T16:34:52;2.53;;;1.90;;
10645;SDS011;5371;49.782;9.932;2023-07-29T16:37:19;2.58;;;2.10;;
10645;SDS011;5371;49.782;9.932;2023-07-29T16:39:49;2.95;;;1.88;;
10645;SDS011;5371;49.782;9.932;2023-07-29T16:42:18;2.45;;;1.95;;
10645;SDS011;5371;49.782;9.932;2023-07-29T16:44:45;2.40;;;1.88;;
10645;SDS011;5371;49.782;9.932;2023-07-29T16:47:12;2.33;;;2.13;;
10645;SDS011;5371;49.782;9.932;2023-07-29T16:49:39;3.65;;;1.80;;
10645;SDS011;5371;49.782;9.932;2023-07-29T16:52:07;2.63;;;1.98;;
10645;SDS011;5371;49.782;9.932;2023-07-29T16:54:34;3.28;;;2.05;;
10645;SDS011;5371;49.782;9.932;2023-07-29T16:57:01;2.13;;;1.95;;
10645;SDS011;5371;49.782;9.932;2023-07-29T16:59:29;2.78;;;1.80;;
10645;SDS011;5371;49.782;9.932;2023-07-29T17:01:56;1.90;;;1.80;;
10645;SDS011;5371;49.782;9.932;2023-07-29T17:04:24;2.05;;;1.80;;
10645;SDS011;5371;49.782;9.932;2023-07-29T17:06:51;5.25;;;2.00;;
10645;SDS011;5371;49.782;9.932;2023-07-29T17:09:19;2.00;;;1.80;;
10645;SDS011;5371;49.782;9.932;2023-07-29T17:11:46;2.55;;;1.92;;
10645;SDS011;5371;49.782;9.932;2023-07-29T17:14:13;2.88;;;1.90;;
10645;SDS011;5371;49.782;9.932;2023-07-29T17:16:41;2.20;;;2.00;;
10645;SDS011;5371;49.782;9.932;2023-07-29T17:19:08;2.60;;;1.90;;
10645;SDS011;5371;49.782;9.932;2023-07-29T17:21:35;2.28;;;1.90;;
10645;SDS011;5371;49.782;9.932;2023-07-29T17:24:03;2.13;;;1.80;;
10645;SDS011;5371;49.782;9.932;2023-07-29T17:26:30;3.38;;;2.00;;
10645;SDS011;5371;49.782;9.932;2023-07-29T17:28:57;2.20;;;1.95;;
10645;SDS011;5371;49.782;9.932;2023-07-29T17:31:24;2.35;;;1.88;;
10645;SDS011;5371;49.782;9.932;2023-07-29T17:33:54;2.72;;;1.90;;
10645;SDS011;5371;49.782;9.932;2023-07-29T17:36:21;2.10;;;1.90;;
10645;SDS011;5371;49.782;9.932;2023-07-29T17:38:48;2.60;;;2.00;;
10645;SDS011;5371;49.782;9.932;2023-07-29T17:41:15;2.63;;;1.90;;
10645;SDS011;5371;49.782;9.932;2023-07-29T17:43:43;2.05;;;1.85;;
10645;SDS011;5371;49.782;9.932;2023-07-29T17:46:13;2.40;;;2.00;;
10645;SDS011;5371;49.782;9.932;2023-07-29T17:48:42;2.25;;;1.90;;
10645;SDS011;5371;49.782;9.932;2023-07-29T17:51:11;2.72;;;2.00;;
10645;SDS011;5371;49.782;9.932;2023-07-29T17:53:38;3.22;;;1.92;;
10645;SDS011;5371;49.782;9.932;2023-07-29T17:56:05;3.10;;;2.00;;
10645;SDS011;5371;49.782;9.932;2023-07-29T17:58:33;2.30;;;1.92;;
10645;SDS011;5371;49.782;9.932;2023-07-29T18:01:00;3.00;;;1.90;;
10645;SDS011;5371;49.782;9.932;2023-07-29T18:03:28;2.17;;;2.00;;
10645;SDS011;5371;49.782;9.932;2023-07-29T18:05:55;2.92;;;2.05;;
10645;SDS011;5371;49.782;9.932;2023-07-29T18:08:23;2.78;;;1.85;;
10645;SDS011;5371;49.782;9.932;2023-07-29T18:10:51;3.80;;;2.20;;
10645;SDS011;5371;49.782;9.932;2023-07-29T18:13:18;3.85;;;2.00;;
10645;SDS011;5371;49.782;9.932;2023-07-29T18:15:49;2.13;;;1.80;;
10645;SDS011;5371;49.782;9.932;2023-07-29T18:18:17;2.47;;;2.00;;
10645;SDS011;5371;49.782;9.932;2023-07-29T18:20:49;2.28;;;2.08;;
10645;SDS011;5371;49.782;9.932;2023-07-29T18:23:16;2.30;;;2.10;;
10645;SDS011;5371;49.782;9.932;2023-07-29T18:25:45;3.15;;;2.20;;
10645;SDS011;5371;49.782;9.932;2023-07-29T18:28:14;2.30;;;2.10;;
10645;SDS011;5371;49.782;9.932;2023-07-29T18:30:41;3.03;;;2.28;;
10645;SDS011;5371;49.782;9.932;2023-07-29T18:33:09;2.63;;;2.20;;
10645;SDS011;5371;49.782;9.932;2023-07-29T18:35:39;2.88;;;1.98;;
10645;SDS011;5371;49.782;9.932;2023-07-29T18:38:07;2.75;;;2.50;;
10645;SDS011;5371;49.782;9.932;2023-07-29T18:40:35;3.25;;;2.13;;
10645;SDS011;5371;49.782;9.932;2023-07-29T18:43:03;2.72;;;1.98;;
10645;SDS011;5371;49.782;9.932;2023-07-29T18:45:32;2.88;;;2.03;;
10645;SDS011;5371;49.782;9.932;2023-07-29T18:47:59;5.20;;;2.10;;
10645;SDS011;5371;49.782;9.932;2023-07-29T18:50:26;3.72;;;2.00;;
10645;SDS011;5371;49.782;9.932;2023-07-29T18:52:54;4.03;;;2.40;;
10645;SDS011;5371;49.782;9.932;2023-07-29T18:55:23;2.47;;;2.28;;
10645;SDS011;5371;49.782;9.932;2023-07-29T18:57:50;3.03;;;2.40;;
10645;SDS011;5371;49.782;9.932;2023-07-29T19:00:19;3.08;;;2.13;;
10645;SDS011;5371;49.782;9.932;2023-07-29T19:02:46;2.35;;;2.15;;
10645;SDS011;5371;49.782;9.932;2023-07-29T19:05:14;4.43;;;1.92;;
10645;SDS011;5371;49.782;9.932;2023-07-29T19:07:42;3.90;;;2.38;;
10645;SDS011;5371;49.782;9.932;2023-07-29T19:10:11;3.13;;;2.22;;
10645;SDS011;5371;49.782;9.932;2023-07-29T19:12:39;3.00;;;2.22;;
10645;SDS011;5371;49.782;9.932;2023-07-29T19:15:08;2.88;;;2.10;;
10645;SDS011;5371;49.782;9.932;2023-07-29T19:17:37;5.50;;;2.20;;
10645;SDS011;5371;49.782;9.932;2023-07-29T19:20:04;2.63;;;2.30;;
10645;SDS011;5371;49.782;9.932;2023-07-29T19:22:32;3.47;;;2.45;;
10645;SDS011;5371;49.782;9.932;2023-07-29T19:24:59;2.53;;;2.08;;
10645;SDS011;5371;49.782;9.932;2023-07-29T19:27:27;3.75;;;2.22;;
10645;SDS011;5371;49.782;9.932;2023-07-29T19:29:54;2.90;;;2.03;;
10645;SDS011;5371;49.782;9.932;2023-07-29T19:32:22;3.85;;;2.30;;
10645;SDS011;5371;49.782;9.932;2023-07-29T19:34:52;4.10;;;2.22;;
10645;SDS011;5371;49.782;9.932;2023-07-29T19:37:20;3.10;;;2.10;;
10645;SDS011;5371;49.782;9.932;2023-07-29T19:39:47;3.35;;;2.10;;
10645;SDS011;5371;49.782;9.932;2023-07-29T19:42:14;2.80;;;2.10;;
10645;SDS011;5371;49.782;9.932;2023-07-29T19:44:44;3.08;;;2.30;;
10645;SDS011;5371;49.782;9.932;2023-07-29T19:47:11;2.42;;;2.22;;
10645;SDS011;5371;49.782;9.932;2023-07-29T19:49:38;3.97;;;2.13;;
10645;SDS011;5371;49.782;9.932;2023-07-29T19:52:07;2.88;;;2.22;;
10645;SDS011;5371;49.782;9.932;2023-07-29T19:54:35;2.65;;;1.98;;
10645;SDS011;5371;49.782;9.932;2023-07-29T19:57:02;2.63;;;2.42;;
10645;SDS011;5371;49.782;9.932;2023-07-29T19:59:32;4.00;;;2.15;;
10645;SDS011;5371;49.782;9.932;2023-07-29T20:02:01;2.63;;;2.15;;
10645;SDS011;5371;49.782;9.932;2023-07-29T20:04:29;3.60;;;2.35;;
10645;SDS011;5371;49.782;9.932;2023-07-29T20:06:57;3.35;;;2.10;;
10645;SDS011;5371;49.782;9.932;2023-07-29T20:09:27;2.90;;;2.13;;
10645;SDS011;5371;49.782;9.932;2023-07-29T20:11:54;2.95;;;2.10;;
10645;SDS011;5371;49.782;9.932;2023-07-29T20:14:21;2.28;;;2.08;;
10645;SDS011;5371;49.782;9.932;2023-07-29T20:16:49;3.33;;;2.30;;
10645;SDS011;5371;49.782;9.932;2023-07-29T20:19:17;2.17;;;1.98;;
10645;SDS011;5371;49.782;9.932;2023-07-29T20:21:45;3.30;;;2.08;;
10645;SDS011;5371;49.782;9.932;2023-07-29T20:24:12;2.60;;;2.15;;
10645;SDS011;5371;49.782;9.932;2023-07-29T20:26:41;6.00;;;2.38;;
10645;SDS011;5371;49.782;9.932;2023-07-29T20:29:08;2.70;;;2.50;;
10645;SDS011;5371;49.782;9.932;2023-07-29T20:31:36;4.75;;;2.33;;
10645;SDS011;5371;49.782;9.932;2023-07-29T20:34:03;2.40;;;2.20;;
10645;SDS011;5371;49.782;9.932;2023-07-29T20:36:31;3.72;;;2.33;;
10645;SDS011;5371;49.782;9.932;2023-07-29T20:38:58;2.58;;;2.17;;
10645;SDS011;5371;49.782;9.932;2023-07-29T20:41:25;4.15;;;2.00;;
10645;SDS011;5371;49.782;9.932;2023-07-29T20:43:53;2.40;;;2.20;;
10645;SDS011;5371;49.782;9.932;2023-07-29T20:46:21;3.55;;;2.30;;
10645;SDS011;5371;49.782;9.932;2023-07-29T20:48:49;3.60;;;2.35;;
10645;SDS011;5371;49.782;9.932;2023-07-29T20:51:16;4.43;;;2.58;;
10645;SDS011;5371;49.782;9.932;2023-07-29T20:53:44;2.75;;;2.35;;
10645;SDS011;5371;49.782;9.932;2023-07-29T20:56:12;2.47;;;2.28;;
10645;SDS011;5371;49.782;9.932;2023-07-29T20:58:40;3.55;;;2.30;;
10645;SDS011;5371;49.782;9.932;2023-07-29T21:01:09;2.63;;;2.35;;
10645;SDS011;5371;49.782;9.932;2023-07-29T21:03:36;4.03;;;2.83;;
10645;SDS011;5371;49.782;9.932;2023-07-29T21:06:03;2.42;;;2.20;;
10645;SDS011;5371;49.782;9.932;2023-07-29T21:08:30;2.90;;;2.60;;
10645;SDS011;5371;49.782;9.932;2023-07-29T21:10:58;3.35;;;2.20;;
10645;SDS011;5371;49.782;9.932;2023-07-29T21:13:24;4.68;;;2.70;;
10645;SDS011;5371;49.782;9.932;2023-07-29T21:15:52;2.88;;;2.60;;
10645;SDS011;5371;49.782;9.932;2023-07-29T21:18:21;2.53;;;2.33;;
10645;SDS011;5371;49.782;9.932;2023-07-29T21:20:48;3.15;;;2.42;;
10645;SDS011;5371;49.782;9.932;2023-07-29T21:23:16;2.67;;;2.47;;
10645;SDS011;5371;49.782;9.932;2023-07-29T21:25:44;3.30;;;2.15;;
10645;SDS011;5371;49.782;9.932;2023-07-29T21:28:12;2.72;;;2.20;;
10645;SDS011;5371;49.782;9.932;2023-07-29T21:30:39;3.25;;;2.45;;
10645;SDS011;5371;49.782;9.932;2023-07-29T21:33:06;2.90;;;2.30;;
10645;SDS011;5371;49.782;9.932;2023-07-29T21:35:35;2.95;;;2.20;;
10645;SDS011;5371;49.782;9.932;2023-07-29T21:38:02;3.10;;;2.40;;
10645;SDS011;5371;49.782;9.932;2023-07-29T21:40:29;2.65;;;2.45;;
10645;SDS011;5371;49.782;9.932;2023-07-29T21:42:56;3.85;;;2.30;;
10645;SDS011;5371;49.782;9.932;2023-07-29T21:45:23;3.58;;;2.60;;
10645;SDS011;5371;49.782;9.932;2023-07-29T21:47:50;3.20;;;2.55;;
10645;SDS011;5371;49.782;9.932;2023-07-29T21:50:17;2.75;;;2.50;;
10645;SDS011;5371;49.782;9.932;2023-07-29T21:52:47;2.53;;;2.20;;
10645;SDS011;5371;49.782;9.932;2023-07-29T21:55:13;4.35;;;2.50;;
10645;SDS011;5371;49.782;9.932;2023-07-29T21:57:43;3.95;;;2.45;;
10645;SDS011;5371;49.782;9.932;2023-07-29T22:00:12;3.47;;;2.53;;
10645;SDS011;5371;49.782;9.932;2023-07-29T22:02:44;3.78;;;2.60;;
10645;SDS011;5371;49.782;9.932;2023-07-29T22:05:11;5.47;;;2.40;;
10645;SDS011;5371;49.782;9.932;2023-07-29T22:07:39;3.22;;;2.55;;
10645;SDS011;5371;49.782;9.932;2023-07-29T22:10:08;4.25;;;2.67;;
10645;SDS011;5371;49.782;9.932;2023-07-29T22:12:37;3.00;;;2.47;;
10645;SDS011;5371;49.782;9.932;2023-07-29T22:15:04;4.07;;;2.50;;
10645;SDS011;5371;49.782;9.932;2023-07-29T22:17:32;2.78;;;2.42;;
10645;SDS011;5371;49.782;9.932;2023-07-29T22:19:59;4.13;;;2.70;;
10645;SDS011;5371;49.782;9.932;2023-07-29T22:22:26;4.10;;;2.83;;
10645;SDS011;5371;49.782;9.932;2023-07-29T22:24:58;4.05;;;2.80;;
10645;SDS011;5371;49.782;9.932;2023-07-29T22:27:27;4.70;;;2.53;;
10645;SDS011;5371;49.782;9.932;2023-07-29T22:29:54;3.83;;;2.60;;
10645;SDS011;5371;49.782;9.932;2023-07-29T22:32:22;7.60;;;2.70;;
10645;SDS011;5371;49.782;9.932;2023-07-29T22:34:49;2.80;;;2.35;;
10645;SDS011;5371;49.782;9.932;2023-07-29T22:37:16;4.65;;;2.70;;
10645;SDS011;5371;49.782;9.932;2023-07-29T22:39:43;4.38;;;2.60;;
10645;SDS011;5371;49.782;9.932;2023-07-29T22:42:13;4.15;;;2.85;;
10645;SDS011;5371;49.782;9.932;2023-07-29T22:44:43;4.03;;;2.50;;
10645;SDS011;5371;49.782;9.932;2023-07-29T22:47:10;3.40;;;2.80;;
10645;SDS011;5371;49.782;9.932;2023-07-29T22:49:37;3.22;;;2.78;;
10645;SDS011;5371;49.782;9.932;2023-07-29T22:52:04;5.03;;;2.83;;
10645;SDS011;5371;49.782;9.932;2023-07-29T22:54:32;2.85;;;2.65;;
10645;SDS011;5371;49.782;9.932;2023-07-29T22:56:59;3.72;;;2.60;;
10645;SDS011;5371;49.782;9.932;2023-07-29T22:59:26;2.83;;;2.55;;
10645;SDS011;5371;49.782;9.932;2023-07-29T23:01:54;4.70;;;3.00;;
10645;SDS011;5371;49.782;9.932;2023-07-29T23:04:21;4.25;;;2.88;;
10645;SDS011;5371;49.782;9.932;2023-07-29T23:06:48;5.05;;;2.55;;
10645;SDS011;5371;49.782;9.932;2023-07-29T23:09:15;4.47;;;2.90;;
10645;SDS011;5371;49.782;9.932;2023-07-29T23:11:42;2.65;;;2.45;;
10645;SDS011;5371;49.782;9.932;2023-07-29T23:14:10;4.22;;;2.80;;
10645;SDS011;5371;49.782;9.932;2023-07-29T23:16:37;3.20;;;2.83;;
10645;SDS011;5371;49.782;9.932;2023-07-29T23:19:06;4.75;;;2.60;;
10645;SDS011;5371;49.782;9.932;2023-07-29T23:21:33;6.60;;;2.67;;
10645;SDS011;5371;49.782;9.932;2023-07-29T23:24:00;3.47;;;2.60;;
10645;SDS011;5371;49.782;9.932;2023-07-29T23:26:28;3.65;;;2.67;;
10645;SDS011;5371;49.782;9.932;2023-07-29T23:28:55;3.63;;;2.72;;
10645;SDS011;5371;49.782;9.932;2023-07-29T23:31:23;3.38;;;2.63;;
10645;SDS011;5371;49.782;9.932;2023-07-29T23:33:50;3.80;;;2.80;;
10645;SDS011;5371;49.782;9.932;2023-07-29T23:36:19;3.65;;;2.67;;
10645;SDS011;5371;49.782;9.932;2023-07-29T23:38:48;3.92;;;2.70;;